sensor_id;sensor_type;location;lat;lon;timestamp;pressure;altitude;pressure_sealevel;temperature;humidity
75414;BME280;64758;52.122;5.404;2022-12-29T00:01:41;100180.44;;;10.75;100.00
75414;BME280;64758;52.122;5.404;2022-12-29T00:04:11;100152.22;;;10.81;100.00
75414;BME280;64758;52.122;5.404;2022-12-29T00:06:41;100170.03;;;10.87;100.00
75414;BME280;64758;52.122;5.404;2022-12-29T00:09:10;100165.53;;;10.87;99.46
75414;BME280;64758;52.122;5.404;2022-12-29T00:11:37;100154.91;;;10.87;99.26
75414;BME280;64758;52.122;5.404;2022-12-29T00:14:04;100149.59;;;11.00;97.48
75414;BME280;64758;52.122;5.404;2022-12-29T00:16:51;100161.63;;;11.03;98.28
75414;BME280;64758;52.122;5.404;2022-12-29T00:19:18;100141.63;;;11.00;98.25
75414;BME280;64758;52.122;5.404;2022-12-29T00:22:04;100153.66;;;11.03;97.40
75414;BME280;64758;52.122;5.404;2022-12-29T00:24:49;100136.50;;;11.05;97.66
75414;BME280;64758;52.122;5.404;2022-12-29T00:27:28;100127.50;;;11.06;96.94
75414;BME280;64758;52.122;5.404;2022-12-29T00:30:18;100136.69;;;11.04;97.44
75414;BME280;64758;52.122;5.404;2022-12-29T00:33:10;100138.75;;;11.08;96.91
75414;BME280;64758;52.122;5.404;2022-12-29T00:36:01;100139.97;;;11.06;97.52
75414;BME280;64758;52.122;5.404;2022-12-29T00:38:31;100134.25;;;11.09;97.05
75414;BME280;64758;52.122;5.404;2022-12-29T00:41:17;100115.25;;;11.05;96.71
75414;BME280;64758;52.122;5.404;2022-12-29T00:44:02;100118.69;;;11.06;97.63
75414;BME280;64758;52.122;5.404;2022-12-29T00:46:37;100113.19;;;11.07;96.84
75414;BME280;64758;52.122;5.404;2022-12-29T00:49:06;100105.84;;;11.09;96.43
75414;BME280;64758;52.122;5.404;2022-12-29T00:51:52;100101.53;;;11.08;96.35
75414;BME280;64758;52.122;5.404;2022-12-29T00:54:19;100101.31;;;11.10;96.34
75414;BME280;64758;52.122;5.404;2022-12-29T00:56:50;100095.81;;;11.11;96.11
75414;BME280;64758;52.122;5.404;2022-12-29T00:59:18;100084.16;;;11.12;95.23
75414;BME280;64758;52.122;5.404;2022-12-29T01:01:46;100091.09;;;11.13;95.28
75414;BME280;64758;52.122;5.404;2022-12-29T01:04:13;100086.59;;;11.14;95.51
75414;BME280;64758;52.122;5.404;2022-12-29T01:06:40;100071.47;;;11.08;96.77
75414;BME280;64758;52.122;5.404;2022-12-29T01:09:08;100081.09;;;11.02;96.97
75414;BME280;64758;52.122;5.404;2022-12-29T01:11:54;100072.53;;;11.00;96.51
75414;BME280;64758;52.122;5.404;2022-12-29T01:14:21;100076.22;;;10.99;96.60
75414;BME280;64758;52.122;5.404;2022-12-29T01:16:47;100075.38;;;10.99;97.29
75414;BME280;64758;52.122;5.404;2022-12-29T01:19:15;100078.66;;;10.94;99.30
75414;BME280;64758;52.122;5.404;2022-12-29T01:21:43;100063.13;;;10.85;100.00
75414;BME280;64758;52.122;5.404;2022-12-29T01:24:10;100059.28;;;10.74;100.00
75414;BME280;64758;52.122;5.404;2022-12-29T01:26:37;100062.16;;;10.66;100.00
75414;BME280;64758;52.122;5.404;2022-12-29T01:29:03;100063.38;;;10.57;100.00
75414;BME280;64758;52.122;5.404;2022-12-29T01:31:30;100053.75;;;10.50;100.00
75414;BME280;64758;52.122;5.404;2022-12-29T01:33:56;100051.31;;;10.42;100.00
75414;BME280;64758;52.122;5.404;2022-12-29T01:36:23;100048.69;;;10.35;100.00
75414;BME280;64758;52.122;5.404;2022-12-29T01:38:50;100052.75;;;10.31;100.00
75414;BME280;64758;52.122;5.404;2022-12-29T01:41:17;100071.53;;;10.30;100.00
75414;BME280;64758;52.122;5.404;2022-12-29T01:49:14;100059.06;;;10.24;100.00
75414;BME280;64758;52.122;5.404;2022-12-29T01:51:53;100067.03;;;10.24;100.00
75414;BME280;64758;52.122;5.404;2022-12-29T01:54:29;100067.25;;;10.22;100.00
75414;BME280;64758;52.122;5.404;2022-12-29T01:57:01;100068.03;;;10.23;100.00
75414;BME280;64758;52.122;5.404;2022-12-29T01:59:33;100069.50;;;10.25;100.00
75414;BME280;64758;52.122;5.404;2022-12-29T02:02:01;100066.63;;;10.27;100.00
75414;BME280;64758;52.122;5.404;2022-12-29T02:04:30;100065.81;;;10.26;100.00
75414;BME280;64758;52.122;5.404;2022-12-29T02:07:03;100081.53;;;10.28;100.00
75414;BME280;64758;52.122;5.404;2022-12-29T02:09:30;100082.97;;;10.30;100.00
75414;BME280;64758;52.122;5.404;2022-12-29T02:11:58;100074.00;;;10.31;100.00
75414;BME280;64758;52.122;5.404;2022-12-29T02:14:25;100077.25;;;10.33;100.00
75414;BME280;64758;52.122;5.404;2022-12-29T02:22:19;100087.88;;;10.33;100.00
75414;BME280;64758;52.122;5.404;2022-12-29T02:31:02;100077.88;;;10.35;100.00
75414;BME280;64758;52.122;5.404;2022-12-29T02:36:32;100076.84;;;10.36;100.00
75414;BME280;64758;52.122;5.404;2022-12-29T02:39:21;100078.28;;;10.39;100.00
75414;BME280;64758;52.122;5.404;2022-12-29T02:47:23;100064.38;;;10.37;100.00
75414;BME280;64758;52.122;5.404;2022-12-29T02:50:03;100059.91;;;10.37;100.00
75414;BME280;64758;52.122;5.404;2022-12-29T02:52:56;100075.63;;;10.39;100.00
75414;BME280;64758;52.122;5.404;2022-12-29T02:55:23;100062.97;;;10.41;100.00
75414;BME280;64758;52.122;5.404;2022-12-29T02:58:12;100056.41;;;10.37;100.00
75414;BME280;64758;52.122;5.404;2022-12-29T03:00:52;100066.84;;;10.38;100.00
75414;BME280;64758;52.122;5.404;2022-12-29T03:03:44;100079.09;;;10.39;100.00
75414;BME280;64758;52.122;5.404;2022-12-29T03:06:32;100076.84;;;10.36;100.00
75414;BME280;64758;52.122;5.404;2022-12-29T03:11:59;100079.47;;;10.30;100.00
75414;BME280;64758;52.122;5.404;2022-12-29T03:14:47;100060.09;;;10.29;100.00
75414;BME280;64758;52.122;5.404;2022-12-29T03:17:40;100058.03;;;10.25;100.00
75414;BME280;64758;52.122;5.404;2022-12-29T03:20:16;100062.16;;;10.27;100.00
75414;BME280;64758;52.122;5.404;2022-12-29T03:22:47;100074.41;;;10.28;100.00
75414;BME280;64758;52.122;5.404;2022-12-29T03:25:24;100071.13;;;10.26;100.00
75414;BME280;64758;52.122;5.404;2022-12-29T03:28:25;100071.53;;;10.30;100.00
75414;BME280;64758;52.122;5.404;2022-12-29T03:30:55;100052.34;;;10.28;100.00
75414;BME280;64758;52.122;5.404;2022-12-29T03:33:25;100049.47;;;10.23;100.00
75414;BME280;64758;52.122;5.404;2022-12-29T03:35:57;100051.50;;;10.21;100.00
75414;BME280;64758;52.122;5.404;2022-12-29T03:41:10;100047.22;;;10.13;100.00
75414;BME280;64758;52.122;5.404;2022-12-29T03:43:37;100044.97;;;10.11;100.00
75414;BME280;64758;52.122;5.404;2022-12-29T03:46:04;100057.63;;;10.09;100.00
75414;BME280;64758;52.122;5.404;2022-12-29T03:48:30;100038.84;;;10.04;100.00
75414;BME280;64758;52.122;5.404;2022-12-29T03:50:59;100052.72;;;10.06;100.00
75414;BME280;64758;52.122;5.404;2022-12-29T03:53:26;100038.22;;;10.02;100.00
75414;BME280;64758;52.122;5.404;2022-12-29T03:55:52;100050.22;;;9.98;100.00
75414;BME280;64758;52.122;5.404;2022-12-29T03:58:19;100061.69;;;9.98;100.00
75414;BME280;64758;52.122;5.404;2022-12-29T04:00:45;100047.56;;;9.98;100.00
75414;BME280;64758;52.122;5.404;2022-12-29T04:03:12;100049.41;;;9.91;100.00
75414;BME280;64758;52.122;5.404;2022-12-29T04:05:38;100048.00;;;9.88;100.00
75414;BME280;64758;52.122;5.404;2022-12-29T04:08:05;100043.47;;;9.82;100.00
75414;BME280;64758;52.122;5.404;2022-12-29T04:10:31;100038.97;;;9.83;100.00
75414;BME280;64758;52.122;5.404;2022-12-29T04:12:59;100040.63;;;9.84;100.00
75414;BME280;64758;52.122;5.404;2022-12-29T04:15:25;100037.56;;;9.80;100.00
75414;BME280;64758;52.122;5.404;2022-12-29T04:17:52;100037.97;;;9.84;100.00
75414;BME280;64758;52.122;5.404;2022-12-29T04:20:19;100054.72;;;9.91;100.00
75414;BME280;64758;52.122;5.404;2022-12-29T04:23:05;100055.53;;;9.91;100.00
75414;BME280;64758;52.122;5.404;2022-12-29T04:25:32;100066.94;;;9.92;100.00
75414;BME280;64758;52.122;5.404;2022-12-29T04:27:59;100078.00;;;9.95;100.00
75414;BME280;64758;52.122;5.404;2022-12-29T04:30:26;100049.41;;;9.91;99.86
75414;BME280;64758;52.122;5.404;2022-12-29T04:32:53;100074.50;;;9.95;98.88
75414;BME280;64758;52.122;5.404;2022-12-29T04:35:19;100054.31;;;9.94;98.71
75414;BME280;64758;52.122;5.404;2022-12-29T04:37:46;100070.22;;;9.94;98.62
75414;BME280;64758;52.122;5.404;2022-12-29T04:40:12;100073.50;;;9.96;97.23
75414;BME280;64758;52.122;5.404;2022-12-29T04:42:39;100082.94;;;10.05;95.24
75414;BME280;64758;52.122;5.404;2022-12-29T04:45:06;100073.56;;;10.02;94.88
75414;BME280;64758;52.122;5.404;2022-12-29T04:47:32;100091.50;;;10.07;94.94
75414;BME280;64758;52.122;5.404;2022-12-29T04:49:59;100079.47;;;10.04;94.01
75414;BME280;64758;52.122;5.404;2022-12-29T04:52:26;100086.00;;;10.08;93.46
75414;BME280;64758;52.122;5.404;2022-12-29T04:54:52;100089.47;;;10.09;93.59
75414;BME280;64758;52.122;5.404;2022-12-29T04:57:19;100087.44;;;10.04;93.36
75414;BME280;64758;52.122;5.404;2022-12-29T04:59:46;100089.25;;;10.04;93.33
75414;BME280;64758;52.122;5.404;2022-12-29T05:02:12;100097.63;;;10.01;93.33
75414;BME280;64758;52.122;5.404;2022-12-29T05:04:39;100088.00;;;10.00;93.04
75414;BME280;64758;52.122;5.404;2022-12-29T05:07:06;100089.66;;;10.01;93.59
75414;BME280;64758;52.122;5.404;2022-12-29T05:09:32;100109.88;;;10.02;93.07
75414;BME280;64758;52.122;5.404;2022-12-29T05:11:59;100105.75;;;9.99;92.07
75414;BME280;64758;52.122;5.404;2022-12-29T05:14:26;100112.72;;;10.00;92.69
75414;BME280;64758;52.122;5.404;2022-12-29T05:16:52;100101.66;;;9.97;92.84
75414;BME280;64758;52.122;5.404;2022-12-29T05:19:19;100110.63;;;9.96;92.57
75414;BME280;64758;52.122;5.404;2022-12-29T05:21:45;100125.31;;;9.92;92.33
75414;BME280;64758;52.122;5.404;2022-12-29T05:24:12;100120.00;;;9.92;92.23
75414;BME280;64758;52.122;5.404;2022-12-29T05:26:38;100124.69;;;9.90;92.39
75414;BME280;64758;52.122;5.404;2022-12-29T05:29:05;100122.03;;;9.90;91.76
75414;BME280;64758;52.122;5.404;2022-12-29T05:31:32;100117.56;;;9.90;91.52
75414;BME280;64758;52.122;5.404;2022-12-29T05:33:59;100121.63;;;9.93;91.39
75414;BME280;64758;52.122;5.404;2022-12-29T05:36:25;100122.03;;;9.90;92.05
75414;BME280;64758;52.122;5.404;2022-12-29T05:38:52;100116.13;;;9.88;91.70
75414;BME280;64758;52.122;5.404;2022-12-29T05:41:18;100114.09;;;9.90;90.79
75414;BME280;64758;52.122;5.404;2022-12-29T05:43:45;100120.41;;;9.89;91.62
75414;BME280;64758;52.122;5.404;2022-12-29T05:46:11;100119.38;;;9.90;91.33
75414;BME280;64758;52.122;5.404;2022-12-29T05:48:38;100112.66;;;9.87;90.92
75414;BME280;64758;52.122;5.404;2022-12-29T05:51:05;100123.69;;;9.91;91.56
75414;BME280;64758;52.122;5.404;2022-12-29T05:53:32;100121.22;;;9.89;91.08
75414;BME280;64758;52.122;5.404;2022-12-29T05:55:58;100118.59;;;9.89;90.86
75414;BME280;64758;52.122;5.404;2022-12-29T05:58:25;100122.47;;;9.93;90.86
75414;BME280;64758;52.122;5.404;2022-12-29T06:00:51;100133.88;;;9.87;91.46
75414;BME280;64758;52.122;5.404;2022-12-29T06:03:18;100142.03;;;9.86;90.85
75414;BME280;64758;52.122;5.404;2022-12-29T06:05:45;100146.53;;;9.85;90.43
75414;BME280;64758;52.122;5.404;2022-12-29T06:08:12;100148.16;;;9.86;91.37
75414;BME280;64758;52.122;5.404;2022-12-29T06:10:39;100155.72;;;9.89;89.85
75414;BME280;64758;52.122;5.404;2022-12-29T06:13:06;100164.88;;;9.87;90.94
75414;BME280;64758;52.122;5.404;2022-12-29T06:15:33;100159.56;;;9.80;91.75
75414;BME280;64758;52.122;5.404;2022-12-29T06:17:59;100158.88;;;9.72;93.18
75414;BME280;64758;52.122;5.404;2022-12-29T06:20:26;100163.56;;;9.63;93.90
75414;BME280;64758;52.122;5.404;2022-12-29T06:22:53;100154.16;;;9.61;93.21
75414;BME280;64758;52.122;5.404;2022-12-29T06:25:19;100160.06;;;9.56;93.22
75414;BME280;64758;52.122;5.404;2022-12-29T06:27:46;100157.78;;;9.53;93.30
75414;BME280;64758;52.122;5.404;2022-12-29T06:30:12;100168.78;;;9.50;94.93
75414;BME280;64758;52.122;5.404;2022-12-29T06:32:39;100163.03;;;9.47;94.77
75414;BME280;64758;52.122;5.404;2022-12-29T06:35:06;100166.28;;;9.42;95.38
75414;BME280;64758;52.122;5.404;2022-12-29T06:37:33;100191.31;;;9.33;96.39
75414;BME280;64758;52.122;5.404;2022-12-29T06:39:59;100177.63;;;9.30;97.09
75414;BME280;64758;52.122;5.404;2022-12-29T06:42:26;100182.88;;;9.23;97.33
75414;BME280;64758;52.122;5.404;2022-12-29T06:44:52;100182.44;;;9.20;98.20
75414;BME280;64758;52.122;5.404;2022-12-29T06:47:19;100188.97;;;9.17;98.28
75414;BME280;64758;52.122;5.404;2022-12-29T06:49:45;100182.81;;;9.17;97.93
75414;BME280;64758;52.122;5.404;2022-12-29T06:52:12;100186.09;;;9.19;97.62
75414;BME280;64758;52.122;5.404;2022-12-29T06:54:39;100172.84;;;9.19;95.19
75414;BME280;64758;52.122;5.404;2022-12-29T06:57:06;100170.44;;;9.24;94.92
75414;BME280;64758;52.122;5.404;2022-12-29T06:59:33;100169.03;;;9.28;93.34
75414;BME280;64758;52.122;5.404;2022-12-29T07:01:59;100172.16;;;9.38;90.26
75414;BME280;64758;52.122;5.404;2022-12-29T07:04:29;100171.38;;;9.44;90.58
75414;BME280;64758;52.122;5.404;2022-12-29T07:06:55;100164.28;;;9.44;90.24
75414;BME280;64758;52.122;5.404;2022-12-29T07:09:22;100196.47;;;9.41;90.90
75414;BME280;64758;52.122;5.404;2022-12-29T07:11:48;100195.59;;;9.34;91.40
75414;BME280;64758;52.122;5.404;2022-12-29T07:14:15;100175.84;;;9.09;95.04
75414;BME280;64758;52.122;5.404;2022-12-29T07:16:41;100178.16;;;8.91;96.59
75414;BME280;64758;52.122;5.404;2022-12-29T07:19:08;100183.78;;;8.82;97.86
75414;BME280;64758;52.122;5.404;2022-12-29T07:21:35;100185.69;;;8.67;98.69
75414;BME280;64758;52.122;5.404;2022-12-29T07:24:01;100203.53;;;8.59;99.92
75414;BME280;64758;52.122;5.404;2022-12-29T07:26:27;100207.56;;;8.55;100.00
75414;BME280;64758;52.122;5.404;2022-12-29T07:29:04;100202.84;;;8.50;100.00
75414;BME280;64758;52.122;5.404;2022-12-29T07:31:31;100215.81;;;8.45;100.00
75414;BME280;64758;52.122;5.404;2022-12-29T07:33:57;100211.28;;;8.39;100.00
75414;BME280;64758;52.122;5.404;2022-12-29T07:36:24;100210.44;;;8.39;100.00
75414;BME280;64758;52.122;5.404;2022-12-29T07:38:57;100217.94;;;8.35;100.00
75414;BME280;64758;52.122;5.404;2022-12-29T07:41:24;100230.81;;;8.38;100.00
75414;BME280;64758;52.122;5.404;2022-12-29T07:43:50;100216.56;;;8.39;100.00
75414;BME280;64758;52.122;5.404;2022-12-29T07:46:17;100219.84;;;8.41;100.00
75414;BME280;64758;52.122;5.404;2022-12-29T07:49:03;100218.47;;;8.45;100.00
75414;BME280;64758;52.122;5.404;2022-12-29T07:51:30;100211.31;;;8.46;100.00
75414;BME280;64758;52.122;5.404;2022-12-29T07:53:57;100229.72;;;8.54;100.00
75414;BME280;64758;52.122;5.404;2022-12-29T07:56:26;100211.66;;;8.57;100.00
75414;BME280;64758;52.122;5.404;2022-12-29T07:58:53;100210.28;;;8.61;100.00
75414;BME280;64758;52.122;5.404;2022-12-29T08:01:20;100222.38;;;8.70;99.94
75414;BME280;64758;52.122;5.404;2022-12-29T08:03:47;100221.63;;;8.76;99.34
75414;BME280;64758;52.122;5.404;2022-12-29T08:06:22;100218.16;;;8.76;99.37
75414;BME280;64758;52.122;5.404;2022-12-29T08:08:49;100220.88;;;8.82;98.75
75414;BME280;64758;52.122;5.404;2022-12-29T08:11:15;100211.53;;;8.86;97.98
75414;BME280;64758;52.122;5.404;2022-12-29T08:13:42;100204.06;;;8.96;96.70
75414;BME280;64758;52.122;5.404;2022-12-29T08:16:08;100214.34;;;9.05;95.23
75414;BME280;64758;52.122;5.404;2022-12-29T08:18:35;100191.94;;;9.08;94.67
75414;BME280;64758;52.122;5.404;2022-12-29T08:21:03;100187.25;;;9.10;94.57
75414;BME280;64758;52.122;5.404;2022-12-29T08:23:29;100194.44;;;9.16;92.29
75414;BME280;64758;52.122;5.404;2022-12-29T08:26:01;100202.25;;;9.24;92.14
75414;BME280;64758;52.122;5.404;2022-12-29T08:28:28;100190.63;;;9.25;90.48
75414;BME280;64758;52.122;5.404;2022-12-29T08:30:58;100203.09;;;9.31;91.15
75414;BME280;64758;52.122;5.404;2022-12-29T08:33:25;100204.56;;;9.33;90.56
75414;BME280;64758;52.122;5.404;2022-12-29T08:35:52;100199.75;;;9.43;89.23
75414;BME280;64758;52.122;5.404;2022-12-29T08:38:19;100207.06;;;9.41;89.61
75414;BME280;64758;52.122;5.404;2022-12-29T08:40:45;100197.09;;;9.43;87.51
75414;BME280;64758;52.122;5.404;2022-12-29T08:43:12;100205.47;;;9.47;88.79
75414;BME280;64758;52.122;5.404;2022-12-29T08:45:42;100200.38;;;9.45;88.12
75414;BME280;64758;52.122;5.404;2022-12-29T08:48:08;100214.88;;;9.49;89.40
75414;BME280;64758;52.122;5.404;2022-12-29T08:50:35;100215.03;;;9.48;88.29
75414;BME280;64758;52.122;5.404;2022-12-29T08:53:02;100223.84;;;9.48;88.53
75414;BME280;64758;52.122;5.404;2022-12-29T08:55:28;100204.84;;;9.45;89.50
75414;BME280;64758;52.122;5.404;2022-12-29T08:57:55;100221.75;;;9.44;89.62
75414;BME280;64758;52.122;5.404;2022-12-29T09:00:22;100216.84;;;9.41;90.51
75414;BME280;64758;52.122;5.404;2022-12-29T09:02:49;100210.91;;;9.39;90.86
75414;BME280;64758;52.122;5.404;2022-12-29T09:05:16;100231.94;;;9.40;90.77
75414;BME280;64758;52.122;5.404;2022-12-29T09:07:43;100241.31;;;9.43;91.31
75414;BME280;64758;52.122;5.404;2022-12-29T09:10:09;100244.81;;;9.43;91.59
75414;BME280;64758;52.122;5.404;2022-12-29T09:12:36;100229.69;;;9.44;91.49
75414;BME280;64758;52.122;5.404;2022-12-29T09:15:04;100226.66;;;9.47;91.25
75414;BME280;64758;52.122;5.404;2022-12-29T09:17:30;100229.94;;;9.49;91.38
75414;BME280;64758;52.122;5.404;2022-12-29T09:20:17;100241.75;;;9.46;92.00
75414;BME280;64758;52.122;5.404;2022-12-29T09:22:44;100261.31;;;9.45;91.38
75414;BME280;64758;52.122;5.404;2022-12-29T09:25:11;100242.56;;;9.47;93.02
75414;BME280;64758;52.122;5.404;2022-12-29T09:27:38;100246.63;;;9.43;92.55
75414;BME280;64758;52.122;5.404;2022-12-29T09:30:06;100259.00;;;9.36;94.24
75414;BME280;64758;52.122;5.404;2022-12-29T09:32:33;100263.03;;;9.32;95.16
75414;BME280;64758;52.122;5.404;2022-12-29T09:35:07;100266.66;;;9.24;95.86
75414;BME280;64758;52.122;5.404;2022-12-29T09:37:33;100274.38;;;9.19;96.78
75414;BME280;64758;52.122;5.404;2022-12-29T09:40:00;100283.88;;;9.14;97.83
75414;BME280;64758;52.122;5.404;2022-12-29T09:42:32;100290.78;;;9.08;99.19
75414;BME280;64758;52.122;5.404;2022-12-29T09:47:36;100301.00;;;8.90;100.00
75414;BME280;64758;52.122;5.404;2022-12-29T09:50:08;100307.25;;;8.83;100.00
75414;BME280;64758;52.122;5.404;2022-12-29T09:53:01;100312.06;;;8.80;100.00
75414;BME280;64758;52.122;5.404;2022-12-29T09:55:47;100307.16;;;8.77;100.00
75414;BME280;64758;52.122;5.404;2022-12-29T09:58:21;100305.88;;;8.73;100.00
75414;BME280;64758;52.122;5.404;2022-12-29T10:03:26;100317.13;;;8.75;100.00
75414;BME280;64758;52.122;5.404;2022-12-29T10:06:56;100323.00;;;8.70;100.00
75414;BME280;64758;52.122;5.404;2022-12-29T10:15:10;100350.72;;;8.74;100.00
75414;BME280;64758;52.122;5.404;2022-12-29T10:17:58;100337.28;;;8.76;100.00
75414;BME280;64758;52.122;5.404;2022-12-29T10:20:43;100344.44;;;8.75;100.00
75414;BME280;64758;52.122;5.404;2022-12-29T10:23:35;100347.50;;;8.79;100.00
75414;BME280;64758;52.122;5.404;2022-12-29T10:26:02;100364.88;;;8.81;100.00
75414;BME280;64758;52.122;5.404;2022-12-29T10:28:40;100356.72;;;8.82;100.00
75414;BME280;64758;52.122;5.404;2022-12-29T10:31:15;100376.09;;;8.83;100.00
75414;BME280;64758;52.122;5.404;2022-12-29T10:33:43;100382.19;;;8.83;100.00
75414;BME280;64758;52.122;5.404;2022-12-29T10:36:16;100387.06;;;8.80;100.00
75414;BME280;64758;52.122;5.404;2022-12-29T10:38:48;100375.63;;;8.80;100.00
75414;BME280;64758;52.122;5.404;2022-12-29T10:41:28;100387.69;;;8.82;100.00
75414;BME280;64758;52.122;5.404;2022-12-29T10:44:00;100382.19;;;8.83;100.00
75414;BME280;64758;52.122;5.404;2022-12-29T10:46:30;100390.50;;;8.81;100.00
75414;BME280;64758;52.122;5.404;2022-12-29T10:48:59;100399.94;;;8.83;100.00
75414;BME280;64758;52.122;5.404;2022-12-29T10:51:28;100410.16;;;8.86;100.00
75414;BME280;64758;52.122;5.404;2022-12-29T10:54:04;100414.44;;;8.87;100.00
75414;BME280;64758;52.122;5.404;2022-12-29T10:56:39;100419.72;;;8.87;100.00
75414;BME280;64758;52.122;5.404;2022-12-29T10:59:29;100425.03;;;8.87;100.00
75414;BME280;64758;52.122;5.404;2022-12-29T11:07:33;100439.28;;;8.86;100.00
75414;BME280;64758;52.122;5.404;2022-12-29T11:13:02;100452.16;;;8.89;100.00
75414;BME280;64758;52.122;5.404;2022-12-29T11:15:40;100463.81;;;8.94;100.00
75414;BME280;64758;52.122;5.404;2022-12-29T11:18:24;100461.81;;;8.96;100.00
75414;BME280;64758;52.122;5.404;2022-12-29T11:20:57;100468.38;;;9.00;100.00
75414;BME280;64758;52.122;5.404;2022-12-29T11:23:38;100477.03;;;9.09;100.00
75414;BME280;64758;52.122;5.404;2022-12-29T11:29:26;100479.28;;;9.26;100.00
75414;BME280;64758;52.122;5.404;2022-12-29T11:31:43;100466.56;;;9.36;100.00
75414;BME280;64758;52.122;5.404;2022-12-29T11:34:17;100472.94;;;9.42;100.00
75414;BME280;64758;52.122;5.404;2022-12-29T11:36:45;100485.16;;;9.43;100.00
75414;BME280;64758;52.122;5.404;2022-12-29T11:39:31;100481.25;;;9.39;100.00
75414;BME280;64758;52.122;5.404;2022-12-29T11:41:59;100471.78;;;9.30;100.00
75414;BME280;64758;52.122;5.404;2022-12-29T11:44:27;100479.84;;;9.22;100.00
75414;BME280;64758;52.122;5.404;2022-12-29T11:46:54;100486.97;;;9.21;100.00
75414;BME280;64758;52.122;5.404;2022-12-29T11:49:25;100484.88;;;9.17;100.00
75414;BME280;64758;52.122;5.404;2022-12-29T11:51:54;100488.16;;;9.19;100.00
75414;BME280;64758;52.122;5.404;2022-12-29T11:54:31;100498.38;;;9.22;100.00
75414;BME280;64758;52.122;5.404;2022-12-29T11:57:13;100498.59;;;9.20;100.00
75414;BME280;64758;52.122;5.404;2022-12-29T11:59:43;100503.88;;;9.20;100.00
75414;BME280;64758;52.122;5.404;2022-12-29T12:02:30;100500.22;;;9.21;100.00
75414;BME280;64758;52.122;5.404;2022-12-29T12:05:13;100506.97;;;9.24;100.00
75414;BME280;64758;52.122;5.404;2022-12-29T12:07:43;100507.34;;;9.21;100.00
75414;BME280;64758;52.122;5.404;2022-12-29T12:10:25;100498.97;;;9.17;100.00
75414;BME280;64758;52.122;5.404;2022-12-29T12:13:02;100519.50;;;9.15;100.00
75414;BME280;64758;52.122;5.404;2022-12-29T12:15:39;100522.44;;;9.06;100.00
75414;BME280;64758;52.122;5.404;2022-12-29T12:18:22;100502.72;;;8.94;100.00
75414;BME280;64758;52.122;5.404;2022-12-29T12:20:54;100512.31;;;8.95;100.00
75414;BME280;64758;52.122;5.404;2022-12-29T12:23:40;100513.31;;;8.94;100.00
75414;BME280;64758;52.122;5.404;2022-12-29T12:26:19;100524.63;;;9.02;100.00
75414;BME280;64758;52.122;5.404;2022-12-29T12:28:57;100518.41;;;9.10;100.00
75414;BME280;64758;52.122;5.404;2022-12-29T12:32:04;100524.81;;;9.15;100.00
75414;BME280;64758;52.122;5.404;2022-12-29T12:34:32;100534.84;;;9.20;100.00
75414;BME280;64758;52.122;5.404;2022-12-29T12:39:49;100525.16;;;9.27;100.00
75414;BME280;64758;52.122;5.404;2022-12-29T12:45:23;100527.31;;;9.38;100.00
75414;BME280;64758;52.122;5.404;2022-12-29T12:56:44;100539.63;;;9.60;100.00
75414;BME280;64758;52.122;5.404;2022-12-29T13:02:18;100541.72;;;9.64;100.00
75414;BME280;64758;52.122;5.404;2022-12-29T13:05:09;100550.75;;;9.70;99.69
75414;BME280;64758;52.122;5.404;2022-12-29T13:07:50;100552.22;;;9.72;97.98
75414;BME280;64758;52.122;5.404;2022-12-29T13:15:56;100550.09;;;9.68;97.90
75414;BME280;64758;52.122;5.404;2022-12-29T13:21:12;100550.94;;;9.68;99.08
75414;BME280;64758;52.122;5.404;2022-12-29T13:23:50;100547.66;;;9.66;97.16
75414;BME280;64758;52.122;5.404;2022-12-29T13:26:34;100556.63;;;9.65;97.11
75414;BME280;64758;52.122;5.404;2022-12-29T13:34:32;100562.66;;;9.59;96.99
75414;BME280;64758;52.122;5.404;2022-12-29T13:37:09;100567.13;;;9.59;97.01
75414;BME280;64758;52.122;5.404;2022-12-29T13:39:42;100577.75;;;9.59;96.61
75414;BME280;64758;52.122;5.404;2022-12-29T13:42:09;100578.75;;;9.58;96.14
75414;BME280;64758;52.122;5.404;2022-12-29T13:47:38;100564.47;;;9.59;96.05
75414;BME280;64758;52.122;5.404;2022-12-29T13:50:17;100574.44;;;9.57;95.37
75414;BME280;64758;52.122;5.404;2022-12-29T13:55:41;100571.16;;;9.55;97.20
75414;BME280;64758;52.122;5.404;2022-12-29T13:58:26;100575.84;;;9.53;97.21
75414;BME280;64758;52.122;5.404;2022-12-29T14:01:02;100554.81;;;9.51;96.71
75414;BME280;64758;52.122;5.404;2022-12-29T14:03:42;100571.38;;;9.53;96.16
75414;BME280;64758;52.122;5.404;2022-12-29T14:08:58;100570.09;;;9.49;97.00
75414;BME280;64758;52.122;5.404;2022-12-29T14:11:32;100593.69;;;9.44;97.14
75414;BME280;64758;52.122;5.404;2022-12-29T14:14:13;100584.34;;;9.34;97.61
75414;BME280;64758;52.122;5.404;2022-12-29T14:16:43;100593.41;;;9.25;97.81
75414;BME280;64758;52.122;5.404;2022-12-29T14:21:55;100599.25;;;9.06;98.34
75414;BME280;64758;52.122;5.404;2022-12-29T14:24:43;100605.28;;;9.00;100.00
75414;BME280;64758;52.122;5.404;2022-12-29T14:34:59;100597.50;;;8.70;100.00
75414;BME280;64758;52.122;5.404;2022-12-29T14:37:33;100625.16;;;8.67;100.00
75414;BME280;64758;52.122;5.404;2022-12-29T14:42:42;100610.59;;;8.49;100.00
75414;BME280;64758;52.122;5.404;2022-12-29T14:47:43;100613.56;;;8.31;100.00
75414;BME280;64758;52.122;5.404;2022-12-29T14:52:53;100613.41;;;8.25;100.00
75414;BME280;64758;52.122;5.404;2022-12-29T14:55:36;100616.41;;;8.22;100.00
75414;BME280;64758;52.122;5.404;2022-12-29T14:58:10;100617.25;;;8.22;100.00
75414;BME280;64758;52.122;5.404;2022-12-29T15:00:41;100630.50;;;8.22;100.00
75414;BME280;64758;52.122;5.404;2022-12-29T15:03:15;100617.41;;;8.21;100.00
75414;BME280;64758;52.122;5.404;2022-12-29T15:05:44;100618.06;;;8.23;100.00
75414;BME280;64758;52.122;5.404;2022-12-29T15:08:13;100623.19;;;8.24;100.00